Página principal
METAR-TAF:

METAR-TAF

Aeroportos :

El Hierro, Espanha

latitude: 27-49N, longitude: 017-53W, altura: 32 m

Observação actual do tempo

O boletim foi feito há 28 minutos, às 11:30 UTC
Vento 4 kt de es-sudeste, variando entre este e su-sudeste
Temperatura 24°C
Humidade 74%
Pressão 1019 hPa
Visibilidade 10 km ou mais
sem nuvens abaixo de 1500 metros e sem cumulonimbus

METAR: GCHI 151130Z 11004KT 080V160 CAVOK 24/19 Q1019

Hora: 12:58 (11:58 UTC)

Previsão

O boletim foi feito há 3 horas e 58 minutos, às 08:00 UTC
Previsão válida de 15 às 09 UTC a 16 às 09 UTC
Vento 10 kt de nor-noroeste
Visibilidade 10 km ou mais
sem nuvens abaixo de 1500 metros e sem cumulonimbus
Temporariamente
de 15 às 10 UTC a 15 às 15 UTC
Vento 5 kt com direcção variável
Probabilidade 30% :
Temporariamente
de 15 às 20 UTC a 16 às 09 UTC
Nuvens fragmentadasa uma altura de 400 ft

TAF: GCHI 150800Z 1509/1609 33010KT CAVOK TX28/1514Z TN20/1606Z TEMPO 1510/1515 VRB05KT PROB30 TEMPO 1520/1609 BKN004

Observações e previsões do tempo de mais de 4000 aeroportos (mensagens METAR e TAF).

As estações disponíveis são os pontos amarelos e vermelhos sobre o mapa.

Mova o rato sobre o mapa para ver o nome da estação.

Depois clique no ponto para visualizar as observações e previsões meteorológicas.

Para alterar o mapa : clique nos botões verdes com uma cruz preta para aumentar o zoom; no botão verde com uma pitada de zoom; ou nas setas verdes para mapas adjacentes.


METAR-TAF: